createdAt,value
2022-12-25T00:01:22.463Z,101623.66
2022-12-25T00:03:50.035Z,101629.19
2022-12-25T00:06:16.738Z,101624.97
2022-12-25T00:08:43.661Z,101620.38
2022-12-25T00:11:15.616Z,101624.28
2022-12-25T00:13:43.582Z,101632.13
2022-12-25T00:16:14.806Z,101632.25
2022-12-25T00:18:41.359Z,101633.44
2022-12-25T00:21:07.914Z,101642.34
2022-12-25T00:23:35.581Z,101633.53
2022-12-25T00:26:11.866Z,101635.13
2022-12-25T00:28:38.805Z,101638.28
2022-12-25T00:31:07.902Z,101641.44
2022-12-25T00:33:36.368Z,101631.44
2022-12-25T00:36:03.957Z,101643.91
2022-12-25T00:38:30.510Z,101659.88
2022-12-25T00:40:57.069Z,101657.25
2022-12-25T00:43:23.617Z,101652.25
2022-12-25T00:45:58.880Z,101665.03
2022-12-25T00:48:26.552Z,101659.72
2022-12-25T00:50:54.759Z,101653.63
2022-12-25T00:53:21.591Z,101656.75
2022-12-25T00:55:55.923Z,101657.97
2022-12-25T00:58:23.071Z,101667.69
2022-12-25T01:00:51.327Z,101671.19
2022-12-25T01:03:18.416Z,101659.25
2022-12-25T01:05:55.516Z,101667.03
2022-12-25T01:08:22.132Z,101664.75
2022-12-25T01:11:18.176Z,101664.44
2022-12-25T01:13:44.609Z,101658.66
2022-12-25T01:16:12.276Z,101654.44
2022-12-25T01:18:39.280Z,101661.06
2022-12-25T01:21:07.466Z,101662.63
2022-12-25T01:23:34.079Z,101673.94
2022-12-25T01:26:09.315Z,101671.66
2022-12-25T01:28:36.289Z,101661.97
2022-12-25T01:31:03.604Z,101661.97
2022-12-25T01:33:30.414Z,101667.50
2022-12-25T01:35:58.538Z,101660.22
2022-12-25T01:38:25.201Z,101665.63
2022-12-25T01:40:51.804Z,101675.38
2022-12-25T01:43:25.215Z,101679.28
2022-12-25T01:45:55.344Z,101676.66
2022-12-25T01:48:39.849Z,101682.84
2022-12-25T01:51:17.190Z,101692.16
2022-12-25T01:53:43.709Z,101689.88
2022-12-25T01:56:10.222Z,101703.09
2022-12-25T01:58:36.858Z,101703.53
2022-12-25T02:01:03.358Z,101710.91
2022-12-25T02:03:30.020Z,101716.75
2022-12-25T02:05:56.948Z,101715.25
2022-12-25T02:08:23.805Z,101705.22
2022-12-25T02:10:50.570Z,101708.38
2022-12-25T02:13:19.604Z,101713.00
2022-12-25T02:16:15.617Z,101727.75
2022-12-25T02:18:56.657Z,101732.81
2022-12-25T02:21:23.091Z,101742.94
2022-12-25T02:24:14.360Z,101741.41
2022-12-25T02:27:15.081Z,101735.63
2022-12-25T02:29:50.577Z,101736.81
2022-12-25T02:32:26.315Z,101728.00
2022-12-25T02:34:58.593Z,101733.41
2022-12-25T02:37:52.592Z,101733.41
2022-12-25T02:40:28.004Z,101732.31
2022-12-25T02:43:50.637Z,101727.00
2022-12-25T02:46:40.311Z,101722.72
2022-12-25T02:49:32.643Z,101732.81
2022-12-25T02:52:27.153Z,101733.66
2022-12-25T02:55:18.567Z,101728.63
2022-12-25T02:58:07.297Z,101726.34
2022-12-25T03:00:57.680Z,101734.16
2022-12-25T03:03:45.585Z,101752.38
2022-12-25T03:06:31.957Z,101748.88
2022-12-25T03:09:21.725Z,101744.63
2022-12-25T03:11:54.692Z,101743.13
2022-12-25T03:14:39.555Z,101740.84
2022-12-25T03:17:06.146Z,101747.78
2022-12-25T03:19:53.223Z,101752.84
2022-12-25T03:22:43.831Z,101749.03
2022-12-25T03:25:29.625Z,101751.00
2022-12-25T03:27:57.728Z,101735.56
2022-12-25T03:30:50.333Z,101742.19
2022-12-25T03:33:44.008Z,101736.75
2022-12-25T03:36:22.321Z,101732.53
2022-12-25T03:39:23.273Z,101728.25
2022-12-25T03:42:13.746Z,101724.78
2022-12-25T03:45:14.732Z,101720.63
2022-12-25T03:48:06.545Z,101728.75
2022-12-25T03:51:15.606Z,101739.59
2022-12-25T03:54:05.940Z,101737.31
2022-12-25T03:56:52.238Z,101736.56
2022-12-25T03:59:39.247Z,101729.25
2022-12-25T04:02:24.218Z,101725.78
2022-12-25T04:05:09.462Z,101728.91
2022-12-25T04:07:54.799Z,101729.34
2022-12-25T04:10:40.204Z,101727.03
2022-12-25T04:13:25.004Z,101730.94
2022-12-25T04:16:13.581Z,101728.66
2022-12-25T04:18:58.789Z,101719.75
2022-12-25T04:21:44.074Z,101720.53
2022-12-25T04:24:29.867Z,101708.13
2022-12-25T04:27:15.092Z,101704.34
2022-12-25T04:30:00.464Z,101699.34
2022-12-25T04:32:45.228Z,101698.22
2022-12-25T04:35:30.337Z,101711.34
2022-12-25T04:37:57.230Z,101713.72
2022-12-25T04:40:23.782Z,101713.72
2022-12-25T04:42:51.370Z,101707.94
2022-12-25T04:45:17.956Z,101713.38
2022-12-25T04:47:44.441Z,101697.13
2022-12-25T04:50:11.132Z,101700.25
2022-12-25T04:52:39.559Z,101702.94
2022-12-25T04:55:08.209Z,101706.84
2022-12-25T04:57:34.959Z,101705.31
2022-12-25T05:00:01.455Z,101701.41
2022-12-25T05:02:28.044Z,101701.84
2022-12-25T05:04:54.645Z,101696.06
2022-12-25T05:07:21.105Z,101703.03
2022-12-25T05:09:47.519Z,101694.56
2022-12-25T05:12:14.793Z,101686.06
2022-12-25T05:14:41.324Z,101684.13
2022-12-25T05:17:08.154Z,101680.66
2022-12-25T05:19:34.808Z,101672.19
2022-12-25T05:22:01.375Z,101669.47
2022-12-25T05:24:28.409Z,101664.06
2022-12-25T05:26:54.882Z,101657.13
2022-12-25T05:29:21.315Z,101649.41
2022-12-25T05:31:47.846Z,101650.59
2022-12-25T05:34:14.349Z,101647.13
2022-12-25T05:36:40.820Z,101650.66
2022-12-25T05:39:07.298Z,101651.84
2022-12-25T05:41:34.739Z,101647.22
2022-12-25T05:44:01.999Z,101636.78
2022-12-25T05:46:28.491Z,101647.63
2022-12-25T05:48:54.985Z,101641.03
2022-12-25T05:51:21.594Z,101648.31
2022-12-25T05:53:48.184Z,101646.63
2022-12-25T05:56:14.944Z,101640.31
2022-12-25T05:58:41.750Z,101638.22
2022-12-25T06:01:19.815Z,101650.78
2022-12-25T06:03:46.912Z,101638.44
2022-12-25T06:06:14.264Z,101647.06
2022-12-25T06:08:41.038Z,101647.63
2022-12-25T06:11:13.984Z,101651.16
2022-12-25T06:13:40.643Z,101650.16
2022-12-25T06:16:10.262Z,101647.94
2022-12-25T06:18:38.670Z,101655.03
2022-12-25T06:21:10.081Z,101643.13
2022-12-25T06:23:37.811Z,101642.88
2022-12-25T06:26:07.104Z,101646.47
2022-12-25T06:28:33.679Z,101650.53
2022-12-25T06:31:05.965Z,101655.69
2022-12-25T06:33:32.465Z,101664.34
2022-12-25T06:35:58.931Z,101671.88
2022-12-25T06:38:25.409Z,101660.81
2022-12-25T06:40:51.834Z,101661.81
2022-12-25T06:43:18.241Z,101661.19
2022-12-25T06:45:44.740Z,101666.84
2022-12-25T06:48:11.229Z,101669.75
2022-12-25T06:50:43.032Z,101676.97
2022-12-25T06:53:09.568Z,101672.19
2022-12-25T06:55:36.030Z,101672.84
2022-12-25T06:58:02.450Z,101657.19
2022-12-25T07:00:28.906Z,101664.47
2022-12-25T07:02:55.608Z,101665.88
2022-12-25T07:05:22.150Z,101668.13
2022-12-25T07:07:48.600Z,101669.25
2022-12-25T07:10:15.125Z,101673.78
2022-12-25T07:12:41.583Z,101672.16
2022-12-25T07:15:08.805Z,101667.06
2022-12-25T07:17:35.895Z,101667.38
2022-12-25T07:20:02.469Z,101665.75
2022-12-25T07:22:29.883Z,101658.34
2022-12-25T07:24:56.407Z,101659.88
2022-12-25T07:27:22.852Z,101665.66
2022-12-25T07:29:49.652Z,101671.38
2022-12-25T07:32:16.153Z,101670.97
2022-12-25T07:34:42.596Z,101665.53
2022-12-25T07:37:09.097Z,101670.53
2022-12-25T07:39:35.578Z,101664.22
2022-12-25T07:42:02.103Z,101662.28
2022-12-25T07:44:28.545Z,101672.69
2022-12-25T07:46:54.991Z,101672.28
2022-12-25T07:49:21.545Z,101675.75
2022-12-25T07:51:48.003Z,101677.28
2022-12-25T07:54:14.471Z,101680.00
2022-12-25T07:56:40.912Z,101680.28
2022-12-25T07:59:07.375Z,101691.94
2022-12-25T08:01:34.103Z,101683.38
2022-12-25T08:04:01.989Z,101686.84
2022-12-25T08:06:33.871Z,101690.31
2022-12-25T08:09:06.330Z,101681.72
2022-12-25T08:11:32.920Z,101676.25
2022-12-25T08:13:59.397Z,101683.22
2022-12-25T08:16:25.973Z,101685.50
2022-12-25T08:18:53.313Z,101678.09
2022-12-25T08:21:19.811Z,101678.44
2022-12-25T08:23:47.027Z,101668.75
2022-12-25T08:26:20.901Z,101663.31
2022-12-25T08:28:48.294Z,101657.44
2022-12-25T08:31:21.525Z,101640.34
2022-12-25T08:33:49.736Z,101641.44
2022-12-25T08:36:17.313Z,101637.97
2022-12-25T08:38:43.895Z,101640.25
2022-12-25T08:41:11.701Z,101641.00
2022-12-25T08:43:38.476Z,101641.75
2022-12-25T08:46:05.681Z,101634.34
2022-12-25T08:48:32.643Z,101641.75
2022-12-25T08:50:59.213Z,101645.69
2022-12-25T08:53:25.826Z,101649.16
2022-12-25T08:56:00.098Z,101650.66
2022-12-25T08:58:28.149Z,101658.41
2022-12-25T09:00:55.231Z,101655.69
2022-12-25T09:03:22.465Z,101648.72
2022-12-25T09:05:49.099Z,101650.66
2022-12-25T09:08:15.649Z,101648.41
2022-12-25T09:10:42.410Z,101649.91
2022-12-25T09:13:09.820Z,101650.25
2022-12-25T09:15:38.247Z,101646.00
2022-12-25T09:18:05.046Z,101663.09
2022-12-25T09:20:31.524Z,101657.97
2022-12-25T09:22:58.086Z,101655.69
2022-12-25T09:25:24.591Z,101664.59
2022-12-25T09:27:51.067Z,101652.97
2022-12-25T09:30:17.534Z,101646.75
2022-12-25T09:32:44.004Z,101653.28
2022-12-25T09:35:10.577Z,101654.03
2022-12-25T09:37:37.026Z,101654.78
2022-12-25T09:40:03.901Z,101655.56
2022-12-25T09:42:32.421Z,101650.13
2022-12-25T09:45:11.849Z,101652.84
2022-12-25T09:47:41.921Z,101654.38
2022-12-25T09:50:20.444Z,101661.34
2022-12-25T09:52:55.111Z,101646.22
2022-12-25T09:55:24.769Z,101651.94
2022-12-25T09:57:56.922Z,101646.97
2022-12-25T10:00:27.342Z,101651.94
2022-12-25T10:03:12.136Z,101651.94
2022-12-25T10:06:11.358Z,101656.19
2022-12-25T10:08:51.534Z,101658.91
2022-12-25T10:11:26.969Z,101660.47
2022-12-25T10:14:24.662Z,101662.38
2022-12-25T10:16:51.055Z,101663.19
2022-12-25T10:19:53.016Z,101659.66
2022-12-25T10:22:32.011Z,101650.75
2022-12-25T10:25:00.228Z,101655.44
2022-12-25T10:27:34.110Z,101647.25
2022-12-25T10:30:02.178Z,101644.13
2022-12-25T10:32:28.693Z,101635.97
2022-12-25T10:34:55.477Z,101620.41
2022-12-25T10:37:22.019Z,101623.13
2022-12-25T10:39:48.446Z,101601.78
2022-12-25T10:42:30.186Z,101582.31
2022-12-25T10:45:08.152Z,101588.53
2022-12-25T10:47:38.189Z,101590.47
2022-12-25T10:50:12.998Z,101585.03
2022-12-25T10:53:09.867Z,101576.88
2022-12-25T10:55:36.406Z,101564.03
2022-12-25T10:58:02.965Z,101560.56
2022-12-25T11:00:31.962Z,101564.03
2022-12-25T11:02:59.151Z,101572.94
2022-12-25T11:05:31.724Z,101569.47
2022-12-25T11:08:00.946Z,101560.09
2022-12-25T11:10:38.899Z,101548.44
2022-12-25T11:13:07.715Z,101549.22
2022-12-25T11:15:45.519Z,101537.13
2022-12-25T11:18:21.236Z,101537.88
2022-12-25T11:20:55.905Z,101533.19
2022-12-25T11:23:25.195Z,101525.03
2022-12-25T11:25:57.140Z,101518.84
2022-12-25T11:28:25.349Z,101519.16
2022-12-25T11:30:57.562Z,101513.72
2022-12-25T11:33:30.508Z,101507.53
2022-12-25T11:35:58.120Z,101516.44
2022-12-25T11:38:25.161Z,101529.59
2022-12-25T11:40:56.015Z,101526.59
2022-12-25T11:43:44.122Z,101518.41
2022-12-25T11:46:18.202Z,101519.59
2022-12-25T11:48:50.016Z,101514.16
2022-12-25T11:51:17.782Z,101525.03
2022-12-25T11:53:51.671Z,101514.16
2022-12-25T11:56:28.047Z,101513.41
2022-12-25T11:59:00.751Z,101514.16
2022-12-25T12:01:48.906Z,101510.25
2022-12-25T12:07:17.267Z,101496.66
2022-12-25T12:12:34.536Z,101527.31
2022-12-25T12:15:09.143Z,101532.75
2022-12-25T12:20:27.388Z,101525.03
2022-12-25T12:25:21.651Z,101533.53
2022-12-25T12:27:57.232Z,101523.88
2022-12-25T12:30:32.355Z,101526.88
2022-12-25T12:33:02.004Z,101527.31
2022-12-25T12:35:33.147Z,101519.16
2022-12-25T12:38:04.214Z,101503.59
2022-12-25T12:40:41.903Z,101507.06
2022-12-25T12:43:28.341Z,101494.22
2022-12-25T12:46:30.050Z,101480.63
2022-12-25T12:49:20.747Z,101476.69
2022-12-25T12:51:47.873Z,101467.78
2022-12-25T12:54:14.468Z,101472.81
2022-12-25T12:56:40.900Z,101473.53
2022-12-25T12:59:09.557Z,101471.25
2022-12-25T13:01:51.672Z,101465.38
2022-12-25T13:05:01.678Z,101461.91
2022-12-25T13:07:44.314Z,101448.31
2022-12-25T13:10:20.420Z,101456.47
2022-12-25T13:12:53.428Z,101445.59
2022-12-25T13:15:21.276Z,101430.75
2022-12-25T13:17:48.630Z,101411.09
2022-12-25T13:20:35.210Z,101397.34
2022-12-25T13:23:01.673Z,101393.44
2022-12-25T13:25:28.208Z,101402.34
2022-12-25T13:27:57.443Z,101405.81
2022-12-25T13:30:24.780Z,101400.38
2022-12-25T13:32:51.490Z,101406.59
2022-12-25T13:35:21.129Z,101397.66
2022-12-25T13:37:48.160Z,101392.97
2022-12-25T13:40:27.094Z,101389.50
2022-12-25T13:43:00.287Z,101386.34
2022-12-25T13:45:29.834Z,101379.38
2022-12-25T13:47:56.818Z,101379.38
2022-12-25T13:50:27.558Z,101384.38
2022-12-25T13:52:57.716Z,101367.75
2022-12-25T13:55:27.247Z,101375.13
2022-12-25T13:57:57.753Z,101363.50
2022-12-25T14:00:46.469Z,101370.16
2022-12-25T14:03:39.375Z,101376.34
2022-12-25T14:06:27.327Z,101370.91
2022-12-25T14:08:58.900Z,101370.16
2022-12-25T14:11:29.191Z,101376.03
2022-12-25T14:14:07.156Z,101389.19
2022-12-25T14:16:34.583Z,101390.72
2022-12-25T14:19:02.579Z,101372.88
2022-12-25T14:21:38.964Z,101390.72
2022-12-25T14:24:13.953Z,101386.78
2022-12-25T14:26:40.780Z,101380.31
2022-12-25T14:29:16.781Z,101381.78
2022-12-25T14:31:45.088Z,101388.75
2022-12-25T14:34:17.765Z,101386.03
2022-12-25T14:36:44.869Z,101374.38
2022-12-25T14:39:29.776Z,101384.81
2022-12-25T14:41:56.806Z,101369.25
2022-12-25T14:44:40.811Z,101351.41
2022-12-25T14:47:18.676Z,101354.88
2022-12-25T14:49:45.810Z,101352.94
2022-12-25T14:52:18.116Z,101347.47
2022-12-25T14:55:16.739Z,101340.53
2022-12-25T14:57:48.591Z,101339.31
2022-12-25T15:00:35.451Z,101340.06
2022-12-25T15:03:08.255Z,101340.06
2022-12-25T15:05:38.087Z,101342.81
2022-12-25T15:08:10.140Z,101337.34
2022-12-25T15:13:25.699Z,101333.88
2022-12-25T15:15:58.767Z,101330.41
2022-12-25T15:18:30.513Z,101317.25
2022-12-25T15:20:57.248Z,101312.56
2022-12-25T15:23:25.336Z,101310.59
2022-12-25T15:25:52.145Z,101313.31
2022-12-25T15:28:18.632Z,101301.22
2022-12-25T15:30:45.224Z,101302.00
2022-12-25T15:33:16.486Z,101282.63
2022-12-25T15:35:44.331Z,101288.84
2022-12-25T15:38:12.789Z,101289.59
2022-12-25T15:40:39.994Z,101289.59
2022-12-25T15:43:14.562Z,101282.19
2022-12-25T15:45:53.903Z,101282.94
2022-12-25T15:48:20.395Z,101286.13
2022-12-25T15:50:46.838Z,101275.97
2022-12-25T15:53:14.087Z,101264.66
2022-12-25T15:55:40.821Z,101263.13
2022-12-25T15:58:12.658Z,101263.13
2022-12-25T16:00:39.176Z,101268.88
2022-12-25T16:03:05.791Z,101261.19
2022-12-25T16:05:32.366Z,101268.13
2022-12-25T16:07:58.822Z,101257.25
2022-12-25T16:10:25.301Z,101275.09
2022-12-25T16:12:51.812Z,101269.66
2022-12-25T16:15:18.343Z,101258.00
2022-12-25T16:17:45.066Z,101259.22
2022-12-25T16:20:11.969Z,101254.97
2022-12-25T16:22:41.353Z,101251.94
2022-12-25T16:25:13.666Z,101239.25
2022-12-25T16:27:40.344Z,101242.41
2022-12-25T16:30:07.533Z,101239.84
2022-12-25T16:32:34.071Z,101238.31
2022-12-25T16:35:00.562Z,101233.78
2022-12-25T16:37:27.620Z,101234.13
2022-12-25T16:39:54.110Z,101235.28
2022-12-25T16:42:20.732Z,101223.38
2022-12-25T16:44:47.155Z,101222.91
2022-12-25T16:47:13.692Z,101210.81
2022-12-25T16:49:40.145Z,101222.47
2022-12-25T16:52:06.663Z,101210.06
2022-12-25T16:54:33.126Z,101204.47
2022-12-25T16:56:59.603Z,101201.75
2022-12-25T16:59:28.582Z,101200.53
2022-12-25T17:01:55.492Z,101181.94
2022-12-25T17:04:22.105Z,101176.81
2022-12-25T17:06:48.981Z,101173.66
2022-12-25T17:09:15.481Z,101171.69
2022-12-25T17:11:41.990Z,101173.94
2022-12-25T17:14:10.311Z,101162.31
2022-12-25T17:16:38.004Z,101171.22
2022-12-25T17:19:12.126Z,101159.13
2022-12-25T17:21:38.769Z,101157.19
2022-12-25T17:24:05.776Z,101159.94
2022-12-25T17:26:33.126Z,101152.50
2022-12-25T17:29:00.130Z,101133.44
2022-12-25T17:31:26.838Z,101133.44
2022-12-25T17:33:53.359Z,101131.47
2022-12-25T17:36:21.634Z,101118.63
2022-12-25T17:38:48.692Z,101124.84
2022-12-25T17:41:16.788Z,101129.06
2022-12-25T17:43:45.611Z,101122.13
2022-12-25T17:46:18.146Z,101126.34
2022-12-25T17:48:45.313Z,101120.16
2022-12-25T17:51:16.057Z,101125.13
2022-12-25T17:53:44.953Z,101123.94
2022-12-25T17:56:12.430Z,101115.75
2022-12-25T17:58:39.478Z,101112.28
2022-12-25T18:01:08.062Z,101117.28
2022-12-25T18:03:35.956Z,101106.84
2022-12-25T18:06:06.247Z,101111.84
2022-12-25T18:08:38.917Z,101115.75
2022-12-25T18:11:11.404Z,101110.31
2022-12-25T18:13:38.149Z,101105.63
2022-12-25T18:16:07.068Z,101104.88
2022-12-25T18:18:34.660Z,101099.44
2022-12-25T18:21:02.130Z,101088.56
2022-12-25T18:23:29.333Z,101078.88
2022-12-25T18:25:56.301Z,101078.13
2022-12-25T18:28:22.861Z,101069.97
2022-12-25T18:30:49.395Z,101063.00
2022-12-25T18:33:15.943Z,101056.81
2022-12-25T18:35:44.037Z,101045.94
2022-12-25T18:38:11.545Z,101045.94
2022-12-25T18:40:42.598Z,101051.38
2022-12-25T18:43:09.641Z,101041.25
2022-12-25T18:45:36.884Z,101033.84
2022-12-25T18:48:06.102Z,101031.13
2022-12-25T18:50:33.867Z,101021.44
2022-12-25T18:53:00.461Z,101010.88
2022-12-25T18:55:27.018Z,101010.56
2022-12-25T18:57:53.687Z,101002.72
2022-12-25T19:00:20.367Z,101006.66
2022-12-25T19:02:48.329Z,101007.41
2022-12-25T19:05:15.993Z,101000.00
2022-12-25T19:07:42.977Z,100995.31
2022-12-25T19:10:10.475Z,100989.84
2022-12-25T19:12:37.021Z,100992.59
2022-12-25T19:15:03.793Z,100986.38
2022-12-25T19:17:32.072Z,100979.72
2022-12-25T19:19:58.988Z,100971.56
2022-12-25T19:22:25.730Z,100970.38
2022-12-25T19:24:52.168Z,100964.16
2022-12-25T19:27:18.673Z,100958.72
2022-12-25T19:29:45.213Z,100961.44
2022-12-25T19:32:11.743Z,100960.22
2022-12-25T19:34:38.261Z,100943.91
2022-12-25T19:37:05.171Z,100949.34
2022-12-25T19:39:31.776Z,100935.75
2022-12-25T19:41:58.220Z,100938.47
2022-12-25T19:44:24.902Z,100938.47
2022-12-25T19:46:51.405Z,100926.84
2022-12-25T19:49:17.898Z,100928.81
2022-12-25T19:51:45.845Z,100921.84
2022-12-25T19:54:20.636Z,100904.03
2022-12-25T19:56:48.163Z,100902.81
2022-12-25T19:59:15.105Z,100904.03
2022-12-25T20:01:42.635Z,100896.59
2022-12-25T20:04:09.924Z,100900.09
2022-12-25T20:06:38.780Z,100891.16
2022-12-25T20:09:08.844Z,100902.06
2022-12-25T20:11:36.906Z,100900.84
2022-12-25T20:14:04.590Z,100892.69
2022-12-25T20:16:31.173Z,100896.59
2022-12-25T20:18:58.093Z,100897.38
2022-12-25T20:21:27.178Z,100899.63
2022-12-25T20:23:54.026Z,100896.16
2022-12-25T20:26:23.516Z,100878.03
2022-12-25T20:28:50.468Z,100874.84
2022-12-25T20:31:20.664Z,100884.06
2022-12-25T20:33:47.389Z,100877.88
2022-12-25T20:36:14.739Z,100870.91
2022-12-25T20:38:41.654Z,100869.97
2022-12-25T20:41:28.475Z,100878.63
2022-12-25T20:43:56.400Z,100873.94
2022-12-25T20:46:23.507Z,100866.97
2022-12-25T20:48:50.075Z,100863.81
2022-12-25T20:51:19.260Z,100863.81
2022-12-25T20:53:46.414Z,100860.31
2022-12-25T20:56:16.072Z,100858.34
2022-12-25T20:58:43.057Z,100863.03
2022-12-25T21:01:15.327Z,100866.22
2022-12-25T21:03:42.472Z,100873.19
2022-12-25T21:06:11.460Z,100871.97
2022-12-25T21:08:38.828Z,100868.50
2022-12-25T21:11:05.677Z,100872.41
2022-12-25T21:13:35.324Z,100871.66
2022-12-25T21:16:05.750Z,100868.94
2022-12-25T21:18:32.271Z,100862.28
2022-12-25T21:20:59.248Z,100861.53
2022-12-25T21:23:26.715Z,100865.47
2022-12-25T21:25:54.672Z,100866.22
2022-12-25T21:28:22.043Z,100874.84
2022-12-25T21:30:49.009Z,100871.66
2022-12-25T21:33:34.406Z,100866.22
2022-12-25T21:36:11.146Z,100862.00
2022-12-25T21:38:38.485Z,100851.13
2022-12-25T21:41:07.042Z,100851.88
2022-12-25T21:43:34.795Z,100851.88
2022-12-25T21:46:06.645Z,100847.63
2022-12-25T21:48:34.457Z,100848.84
2022-12-25T21:51:43.706Z,100841.44
2022-12-25T21:54:11.483Z,100840.22
2022-12-25T21:56:44.607Z,100840.69
2022-12-25T21:59:15.754Z,100847.63
2022-12-25T22:01:43.079Z,100853.09
2022-12-25T22:04:10.532Z,100843.72
2022-12-25T22:06:55.667Z,100844.47
2022-12-25T22:09:22.691Z,100833.56
2022-12-25T22:12:08.013Z,100839.78
2022-12-25T22:14:53.707Z,100839.78
2022-12-25T22:17:45.374Z,100833.56
2022-12-25T22:20:18.889Z,100838.72
2022-12-25T22:22:45.980Z,100846.44
2022-12-25T22:25:13.251Z,100847.19
2022-12-25T22:27:41.203Z,100841.44
2022-12-25T22:30:11.482Z,100845.38
2022-12-25T22:32:38.189Z,100843.13
2022-12-25T22:35:05.243Z,100845.53
2022-12-25T22:37:31.700Z,100842.53
2022-12-25T22:39:58.184Z,100836.78
2022-12-25T22:42:24.675Z,100832.72
2022-12-25T22:44:51.215Z,100831.69
2022-12-25T22:47:17.669Z,100823.13
2022-12-25T22:49:44.196Z,100828.56
2022-12-25T22:52:10.675Z,100838.84
2022-12-25T22:54:37.615Z,100845.66
2022-12-25T22:57:04.612Z,100849.31
2022-12-25T22:59:32.677Z,100851.41
2022-12-25T23:01:59.869Z,100843.88
2022-12-25T23:04:26.898Z,100844.50
2022-12-25T23:06:53.402Z,100845.88
2022-12-25T23:09:24.847Z,100850.69
2022-12-25T23:11:51.551Z,100841.94
2022-12-25T23:14:36.550Z,100849.97
2022-12-25T23:17:03.117Z,100843.94
2022-12-25T23:19:48.237Z,100853.47
2022-12-25T23:22:33.058Z,100857.53
2022-12-25T23:25:18.537Z,100856.94
2022-12-25T23:27:45.643Z,100857.09
2022-12-25T23:30:15.566Z,100858.13
2022-12-25T23:32:43.227Z,100863.28
2022-12-25T23:35:11.271Z,100854.19
2022-12-25T23:37:37.771Z,100858.13
2022-12-25T23:40:05.026Z,100857.50
2022-12-25T23:42:31.551Z,100858.91
2022-12-25T23:44:58.003Z,100860.25
2022-12-25T23:47:24.508Z,100858.44
2022-12-25T23:49:50.999Z,100867.03
2022-12-25T23:52:17.515Z,100854.06
2022-12-25T23:54:43.962Z,100853.63
2022-12-25T23:57:10.489Z,100855.72
2022-12-25T23:59:36.957Z,100852.69
